sensor_id;sensor_type;location;lat;lon;timestamp;P1;durP1;ratioP1;P2;durP2;ratioP2
68577;SDS011;61668;45.388;11.784;2023-04-01T00:00:52;54.50;;;28.30;;
68577;SDS011;61668;45.388;11.784;2023-04-01T00:03:20;56.30;;;28.30;;
68577;SDS011;61668;45.388;11.784;2023-04-01T00:05:46;59.40;;;28.20;;
68577;SDS011;61668;45.388;11.784;2023-04-01T00:08:11;55.30;;;27.60;;
68577;SDS011;61668;45.388;11.784;2023-04-01T00:10:37;52.60;;;27.20;;
68577;SDS011;61668;45.388;11.784;2023-04-01T00:13:04;57.90;;;30.30;;
68577;SDS011;61668;45.388;11.784;2023-04-01T00:15:30;57.90;;;29.20;;
68577;SDS011;61668;45.388;11.784;2023-04-01T00:17:56;53.10;;;28.10;;
68577;SDS011;61668;45.388;11.784;2023-04-01T00:20:24;55.70;;;28.10;;
68577;SDS011;61668;45.388;11.784;2023-04-01T00:22:50;55.50;;;27.40;;
68577;SDS011;61668;45.388;11.784;2023-04-01T00:25:16;54.30;;;28.00;;
68577;SDS011;61668;45.388;11.784;2023-04-01T00:27:42;59.20;;;27.90;;
68577;SDS011;61668;45.388;11.784;2023-04-01T00:30:09;53.00;;;26.40;;
68577;SDS011;61668;45.388;11.784;2023-04-01T00:32:35;55.20;;;26.40;;
68577;SDS011;61668;45.388;11.784;2023-04-01T00:35:01;58.30;;;29.00;;
68577;SDS011;61668;45.388;11.784;2023-04-01T00:37:28;60.00;;;28.90;;
68577;SDS011;61668;45.388;11.784;2023-04-01T00:39:53;59.70;;;29.00;;
68577;SDS011;61668;45.388;11.784;2023-04-01T00:42:19;62.20;;;30.60;;
68577;SDS011;61668;45.388;11.784;2023-04-01T00:44:49;67.40;;;31.30;;
68577;SDS011;61668;45.388;11.784;2023-04-01T00:47:17;61.00;;;31.50;;
68577;SDS011;61668;45.388;11.784;2023-04-01T00:49:46;54.60;;;29.70;;
68577;SDS011;61668;45.388;11.784;2023-04-01T00:52:16;61.50;;;30.40;;
68577;SDS011;61668;45.388;11.784;2023-04-01T00:54:47;64.10;;;29.60;;
68577;SDS011;61668;45.388;11.784;2023-04-01T00:57:33;56.40;;;28.90;;
68577;SDS011;61668;45.388;11.784;2023-04-01T01:00:05;58.80;;;29.20;;
68577;SDS011;61668;45.388;11.784;2023-04-01T01:02:33;57.70;;;30.20;;
68577;SDS011;61668;45.388;11.784;2023-04-01T01:05:00;59.10;;;31.00;;
68577;SDS011;61668;45.388;11.784;2023-04-01T01:10:23;61.80;;;30.40;;
68577;SDS011;61668;45.388;11.784;2023-04-01T01:15:45;64.70;;;31.20;;
68577;SDS011;61668;45.388;11.784;2023-04-01T01:18:40;69.40;;;31.90;;
68577;SDS011;61668;45.388;11.784;2023-04-01T01:24:28;59.40;;;31.40;;
68577;SDS011;61668;45.388;11.784;2023-04-01T01:27:08;55.30;;;29.70;;
68577;SDS011;61668;45.388;11.784;2023-04-01T01:29:42;56.20;;;27.70;;
68577;SDS011;61668;45.388;11.784;2023-04-01T01:32:29;56.00;;;26.60;;
68577;SDS011;61668;45.388;11.784;2023-04-01T01:35:22;55.00;;;25.30;;
68577;SDS011;61668;45.388;11.784;2023-04-01T01:38:06;63.30;;;28.30;;
68577;SDS011;61668;45.388;11.784;2023-04-01T01:40:39;55.70;;;27.40;;
68577;SDS011;61668;45.388;11.784;2023-04-01T01:43:11;53.40;;;27.20;;
68577;SDS011;61668;45.388;11.784;2023-04-01T01:45:43;55.20;;;30.10;;
68577;SDS011;61668;45.388;11.784;2023-04-01T01:48:11;52.60;;;27.20;;
68577;SDS011;61668;45.388;11.784;2023-04-01T01:50:37;53.00;;;27.00;;
68577;SDS011;61668;45.388;11.784;2023-04-01T01:53:10;53.90;;;28.30;;
68577;SDS011;61668;45.388;11.784;2023-04-01T01:55:39;50.90;;;27.60;;
68577;SDS011;61668;45.388;11.784;2023-04-01T02:00:45;61.70;;;29.10;;
68577;SDS011;61668;45.388;11.784;2023-04-01T02:03:14;62.00;;;29.20;;
68577;SDS011;61668;45.388;11.784;2023-04-01T02:05:40;70.30;;;29.00;;
68577;SDS011;61668;45.388;11.784;2023-04-01T02:08:13;70.50;;;27.80;;
68577;SDS011;61668;45.388;11.784;2023-04-01T02:10:46;60.70;;;28.30;;
68577;SDS011;61668;45.388;11.784;2023-04-01T02:13:21;59.20;;;28.50;;
68577;SDS011;61668;45.388;11.784;2023-04-01T02:15:55;57.50;;;30.40;;
68577;SDS011;61668;45.388;11.784;2023-04-01T02:18:24;59.20;;;31.00;;
68577;SDS011;61668;45.388;11.784;2023-04-01T02:20:50;56.50;;;29.90;;
68577;SDS011;61668;45.388;11.784;2023-04-01T02:23:16;61.90;;;30.30;;
68577;SDS011;61668;45.388;11.784;2023-04-01T02:25:42;60.90;;;33.10;;
68577;SDS011;61668;45.388;11.784;2023-04-01T02:28:10;57.80;;;31.70;;
68577;SDS011;61668;45.388;11.784;2023-04-01T02:30:38;62.80;;;30.80;;
68577;SDS011;61668;45.388;11.784;2023-04-01T02:33:06;71.60;;;30.80;;
68577;SDS011;61668;45.388;11.784;2023-04-01T02:35:35;59.40;;;31.50;;
68577;SDS011;61668;45.388;11.784;2023-04-01T02:38:02;55.70;;;28.50;;
68577;SDS011;61668;45.388;11.784;2023-04-01T02:40:28;60.90;;;31.20;;
68577;SDS011;61668;45.388;11.784;2023-04-01T02:42:54;58.60;;;31.80;;
68577;SDS011;61668;45.388;11.784;2023-04-01T02:45:20;63.80;;;33.70;;
68577;SDS011;61668;45.388;11.784;2023-04-01T02:47:46;63.20;;;34.50;;
68577;SDS011;61668;45.388;11.784;2023-04-01T02:50:11;66.40;;;33.50;;
68577;SDS011;61668;45.388;11.784;2023-04-01T02:52:37;66.20;;;33.70;;
68577;SDS011;61668;45.388;11.784;2023-04-01T02:55:03;69.30;;;35.40;;
68577;SDS011;61668;45.388;11.784;2023-04-01T02:57:29;70.20;;;34.60;;
68577;SDS011;61668;45.388;11.784;2023-04-01T02:59:55;63.90;;;34.50;;
68577;SDS011;61668;45.388;11.784;2023-04-01T03:02:20;72.40;;;38.40;;
68577;SDS011;61668;45.388;11.784;2023-04-01T03:04:46;69.30;;;36.30;;
68577;SDS011;61668;45.388;11.784;2023-04-01T03:07:12;74.50;;;37.30;;
68577;SDS011;61668;45.388;11.784;2023-04-01T03:09:38;67.00;;;32.50;;
68577;SDS011;61668;45.388;11.784;2023-04-01T03:12:05;71.50;;;33.70;;
68577;SDS011;61668;45.388;11.784;2023-04-01T03:14:31;68.60;;;35.20;;
68577;SDS011;61668;45.388;11.784;2023-04-01T03:16:56;71.70;;;34.30;;
68577;SDS011;61668;45.388;11.784;2023-04-01T03:19:22;66.00;;;34.30;;
68577;SDS011;61668;45.388;11.784;2023-04-01T03:21:47;65.30;;;34.40;;
68577;SDS011;61668;45.388;11.784;2023-04-01T03:24:13;59.40;;;32.50;;
68577;SDS011;61668;45.388;11.784;2023-04-01T03:26:38;64.00;;;32.70;;
68577;SDS011;61668;45.388;11.784;2023-04-01T03:29:05;57.80;;;32.20;;
68577;SDS011;61668;45.388;11.784;2023-04-01T03:31:31;58.70;;;30.90;;
68577;SDS011;61668;45.388;11.784;2023-04-01T03:33:56;60.40;;;32.30;;
68577;SDS011;61668;45.388;11.784;2023-04-01T03:36:22;60.90;;;31.70;;
68577;SDS011;61668;45.388;11.784;2023-04-01T03:38:47;57.30;;;30.20;;
68577;SDS011;61668;45.388;11.784;2023-04-01T03:41:15;50.20;;;30.40;;
68577;SDS011;61668;45.388;11.784;2023-04-01T03:43:42;57.20;;;29.60;;
68577;SDS011;61668;45.388;11.784;2023-04-01T03:46:08;55.40;;;29.90;;
68577;SDS011;61668;45.388;11.784;2023-04-01T03:48:34;51.80;;;28.60;;
68577;SDS011;61668;45.388;11.784;2023-04-01T03:51:06;49.40;;;27.40;;
68577;SDS011;61668;45.388;11.784;2023-04-01T03:53:32;57.60;;;28.60;;
68577;SDS011;61668;45.388;11.784;2023-04-01T03:55:58;52.50;;;29.20;;
68577;SDS011;61668;45.388;11.784;2023-04-01T03:58:23;55.20;;;29.20;;
68577;SDS011;61668;45.388;11.784;2023-04-01T04:00:49;50.00;;;27.30;;
68577;SDS011;61668;45.388;11.784;2023-04-01T04:03:15;49.70;;;27.60;;
68577;SDS011;61668;45.388;11.784;2023-04-01T04:05:47;52.20;;;28.40;;
68577;SDS011;61668;45.388;11.784;2023-04-01T04:08:13;52.10;;;28.20;;
68577;SDS011;61668;45.388;11.784;2023-04-01T04:10:39;48.30;;;26.80;;
68577;SDS011;61668;45.388;11.784;2023-04-01T04:13:05;53.80;;;30.20;;
68577;SDS011;61668;45.388;11.784;2023-04-01T04:15:30;51.20;;;28.80;;
68577;SDS011;61668;45.388;11.784;2023-04-01T04:17:56;55.30;;;28.90;;
68577;SDS011;61668;45.388;11.784;2023-04-01T04:20:21;56.10;;;30.50;;
68577;SDS011;61668;45.388;11.784;2023-04-01T04:22:47;55.20;;;27.90;;
68577;SDS011;61668;45.388;11.784;2023-04-01T04:25:12;57.90;;;30.10;;
68577;SDS011;61668;45.388;11.784;2023-04-01T04:27:38;54.00;;;28.30;;
68577;SDS011;61668;45.388;11.784;2023-04-01T04:30:05;59.10;;;29.50;;
68577;SDS011;61668;45.388;11.784;2023-04-01T04:32:32;57.50;;;30.10;;
68577;SDS011;61668;45.388;11.784;2023-04-01T04:34:58;55.20;;;29.70;;
68577;SDS011;61668;45.388;11.784;2023-04-01T04:37:23;55.50;;;29.20;;
68577;SDS011;61668;45.388;11.784;2023-04-01T04:39:51;53.70;;;29.00;;
68577;SDS011;61668;45.388;11.784;2023-04-01T04:42:17;54.50;;;30.90;;
68577;SDS011;61668;45.388;11.784;2023-04-01T04:44:42;59.10;;;31.10;;
68577;SDS011;61668;45.388;11.784;2023-04-01T04:47:08;61.80;;;30.40;;
68577;SDS011;61668;45.388;11.784;2023-04-01T04:49:34;56.80;;;30.60;;
68577;SDS011;61668;45.388;11.784;2023-04-01T04:52:00;55.00;;;28.10;;
68577;SDS011;61668;45.388;11.784;2023-04-01T04:54:26;57.20;;;30.20;;
68577;SDS011;61668;45.388;11.784;2023-04-01T04:56:52;55.60;;;29.00;;
68577;SDS011;61668;45.388;11.784;2023-04-01T04:59:18;52.20;;;28.00;;
68577;SDS011;61668;45.388;11.784;2023-04-01T05:01:44;53.00;;;28.50;;
68577;SDS011;61668;45.388;11.784;2023-04-01T05:04:10;54.80;;;28.60;;
68577;SDS011;61668;45.388;11.784;2023-04-01T05:06:36;51.80;;;28.30;;
68577;SDS011;61668;45.388;11.784;2023-04-01T05:09:02;55.50;;;29.70;;
68577;SDS011;61668;45.388;11.784;2023-04-01T05:11:28;61.40;;;31.40;;
68577;SDS011;61668;45.388;11.784;2023-04-01T05:13:53;60.30;;;29.40;;
68577;SDS011;61668;45.388;11.784;2023-04-01T05:16:20;60.80;;;29.10;;
68577;SDS011;61668;45.388;11.784;2023-04-01T05:18:46;55.00;;;29.20;;
68577;SDS011;61668;45.388;11.784;2023-04-01T05:21:14;57.60;;;31.00;;
68577;SDS011;61668;45.388;11.784;2023-04-01T05:23:41;58.10;;;30.10;;
68577;SDS011;61668;45.388;11.784;2023-04-01T05:26:09;62.70;;;31.10;;
68577;SDS011;61668;45.388;11.784;2023-04-01T05:28:37;65.60;;;33.20;;
68577;SDS011;61668;45.388;11.784;2023-04-01T05:31:04;64.10;;;34.50;;
68577;SDS011;61668;45.388;11.784;2023-04-01T05:33:31;70.50;;;33.50;;
68577;SDS011;61668;45.388;11.784;2023-04-01T05:36:15;64.20;;;32.70;;
68577;SDS011;61668;45.388;11.784;2023-04-01T05:38:41;65.90;;;33.00;;
68577;SDS011;61668;45.388;11.784;2023-04-01T05:41:08;66.60;;;32.10;;
68577;SDS011;61668;45.388;11.784;2023-04-01T05:43:38;62.80;;;34.20;;
68577;SDS011;61668;45.388;11.784;2023-04-01T05:46:05;63.50;;;34.50;;
68577;SDS011;61668;45.388;11.784;2023-04-01T05:48:34;65.60;;;33.50;;
68577;SDS011;61668;45.388;11.784;2023-04-01T05:51:03;72.30;;;35.70;;
68577;SDS011;61668;45.388;11.784;2023-04-01T05:53:29;68.20;;;35.20;;
68577;SDS011;61668;45.388;11.784;2023-04-01T05:55:55;66.00;;;34.30;;
68577;SDS011;61668;45.388;11.784;2023-04-01T05:58:21;75.90;;;36.10;;
68577;SDS011;61668;45.388;11.784;2023-04-01T06:00:47;74.30;;;37.40;;
68577;SDS011;61668;45.388;11.784;2023-04-01T06:03:13;67.60;;;34.40;;
68577;SDS011;61668;45.388;11.784;2023-04-01T06:05:41;75.30;;;38.00;;
68577;SDS011;61668;45.388;11.784;2023-04-01T06:08:17;71.70;;;35.50;;
68577;SDS011;61668;45.388;11.784;2023-04-01T06:39:57;41.50;;;24.00;;
68577;SDS011;61668;45.388;11.784;2023-04-01T06:49:02;40.70;;;24.10;;
68577;SDS011;61668;45.388;11.784;2023-04-01T06:54:36;39.10;;;22.10;;
68577;SDS011;61668;45.388;11.784;2023-04-01T06:57:43;41.00;;;21.90;;
68577;SDS011;61668;45.388;11.784;2023-04-01T07:00:16;38.80;;;21.90;;
68577;SDS011;61668;45.388;11.784;2023-04-01T07:02:54;37.80;;;21.50;;
68577;SDS011;61668;45.388;11.784;2023-04-01T07:05:42;36.00;;;21.30;;
68577;SDS011;61668;45.388;11.784;2023-04-01T07:08:13;37.60;;;21.80;;
68577;SDS011;61668;45.388;11.784;2023-04-01T07:13:43;43.10;;;24.10;;
68577;SDS011;61668;45.388;11.784;2023-04-01T07:21:32;39.70;;;23.50;;
68577;SDS011;61668;45.388;11.784;2023-04-01T07:24:10;36.40;;;21.80;;
68577;SDS011;61668;45.388;11.784;2023-04-01T07:26:41;37.80;;;21.50;;
68577;SDS011;61668;45.388;11.784;2023-04-01T07:29:12;35.60;;;20.20;;
68577;SDS011;61668;45.388;11.784;2023-04-01T07:32:02;33.00;;;19.30;;
68577;SDS011;61668;45.388;11.784;2023-04-01T07:37:33;30.00;;;16.40;;
68577;SDS011;61668;45.388;11.784;2023-04-01T07:43:14;30.70;;;15.10;;
68577;SDS011;61668;45.388;11.784;2023-04-01T07:49:34;30.60;;;16.40;;
68577;SDS011;61668;45.388;11.784;2023-04-01T07:52:00;28.60;;;16.00;;
68577;SDS011;61668;45.388;11.784;2023-04-01T07:57:38;27.20;;;13.90;;
68577;SDS011;61668;45.388;11.784;2023-04-01T08:00:15;27.50;;;16.00;;
68577;SDS011;61668;45.388;11.784;2023-04-01T08:06:10;27.90;;;15.30;;
68577;SDS011;61668;45.388;11.784;2023-04-01T08:09:00;28.70;;;15.20;;
68577;SDS011;61668;45.388;11.784;2023-04-01T08:12:13;25.70;;;13.90;;
68577;SDS011;61668;45.388;11.784;2023-04-01T08:23:28;21.70;;;13.30;;
68577;SDS011;61668;45.388;11.784;2023-04-01T08:33:53;21.40;;;11.90;;
68577;SDS011;61668;45.388;11.784;2023-04-01T08:36:24;25.10;;;16.50;;
68577;SDS011;61668;45.388;11.784;2023-04-01T08:42:04;19.20;;;11.60;;
68577;SDS011;61668;45.388;11.784;2023-04-01T08:50:47;25.00;;;13.60;;
68577;SDS011;61668;45.388;11.784;2023-04-01T08:57:00;23.30;;;13.30;;
68577;SDS011;61668;45.388;11.784;2023-04-01T09:03:08;25.10;;;14.40;;
68577;SDS011;61668;45.388;11.784;2023-04-01T09:35:45;27.00;;;15.60;;
68577;SDS011;61668;45.388;11.784;2023-04-01T09:38:44;22.30;;;14.70;;
68577;SDS011;61668;45.388;11.784;2023-04-01T09:41:27;27.50;;;15.50;;
68577;SDS011;61668;45.388;11.784;2023-04-01T10:06:47;23.50;;;13.10;;
68577;SDS011;61668;45.388;11.784;2023-04-01T10:53:44;23.30;;;14.40;;
68577;SDS011;61668;45.388;11.784;2023-04-01T11:08:55;22.00;;;12.70;;
68577;SDS011;61668;45.388;11.784;2023-04-01T11:14:42;24.70;;;14.00;;
68577;SDS011;61668;45.388;11.784;2023-04-01T11:20:45;22.90;;;12.60;;
68577;SDS011;61668;45.388;11.784;2023-04-01T11:29:47;24.60;;;13.80;;
68577;SDS011;61668;45.388;11.784;2023-04-01T11:32:46;24.30;;;13.90;;
68577;SDS011;61668;45.388;11.784;2023-04-01T11:38:31;24.50;;;14.90;;
68577;SDS011;61668;45.388;11.784;2023-04-01T11:44:03;26.30;;;14.80;;
68577;SDS011;61668;45.388;11.784;2023-04-01T12:04:54;26.40;;;14.70;;
68577;SDS011;61668;45.388;11.784;2023-04-01T12:13:32;26.60;;;16.20;;
68577;SDS011;61668;45.388;11.784;2023-04-01T12:22:00;27.80;;;16.60;;
68577;SDS011;61668;45.388;11.784;2023-04-01T12:24:58;31.70;;;17.80;;
68577;SDS011;61668;45.388;11.784;2023-04-01T12:30:42;31.00;;;18.30;;
68577;SDS011;61668;45.388;11.784;2023-04-01T12:52:22;31.60;;;18.60;;
68577;SDS011;61668;45.388;11.784;2023-04-01T12:55:37;30.20;;;18.90;;
68577;SDS011;61668;45.388;11.784;2023-04-01T13:01:59;31.20;;;18.90;;
68577;SDS011;61668;45.388;11.784;2023-04-01T13:23:10;26.70;;;15.50;;
68577;SDS011;61668;45.388;11.784;2023-04-01T13:29:20;31.00;;;17.10;;
68577;SDS011;61668;45.388;11.784;2023-04-01T13:38:55;32.20;;;19.30;;
68577;SDS011;61668;45.388;11.784;2023-04-01T13:44:06;27.20;;;15.90;;
68577;SDS011;61668;45.388;11.784;2023-04-01T13:58:38;25.80;;;15.00;;
68577;SDS011;61668;45.388;11.784;2023-04-01T14:07:26;30.00;;;16.10;;
68577;SDS011;61668;45.388;11.784;2023-04-01T14:19:24;21.00;;;13.30;;
68577;SDS011;61668;45.388;11.784;2023-04-01T14:22:36;28.60;;;14.30;;
68577;SDS011;61668;45.388;11.784;2023-04-01T14:28:17;24.70;;;12.10;;
68577;SDS011;61668;45.388;11.784;2023-04-01T14:36:53;24.90;;;12.70;;
68577;SDS011;61668;45.388;11.784;2023-04-01T14:50:28;18.80;;;10.00;;
68577;SDS011;61668;45.388;11.784;2023-04-01T14:55:54;21.40;;;10.30;;
68577;SDS011;61668;45.388;11.784;2023-04-01T14:58:40;21.70;;;11.00;;
68577;SDS011;61668;45.388;11.784;2023-04-01T15:07:00;26.30;;;14.20;;
68577;SDS011;61668;45.388;11.784;2023-04-01T15:19:14;21.80;;;12.10;;
68577;SDS011;61668;45.388;11.784;2023-04-01T15:24:46;24.70;;;13.20;;
68577;SDS011;61668;45.388;11.784;2023-04-01T15:27:25;22.00;;;11.50;;
68577;SDS011;61668;45.388;11.784;2023-04-01T15:30:02;23.10;;;11.40;;
68577;SDS011;61668;45.388;11.784;2023-04-01T15:35:30;24.80;;;14.10;;
68577;SDS011;61668;45.388;11.784;2023-04-01T15:38:21;26.50;;;15.10;;
68577;SDS011;61668;45.388;11.784;2023-04-01T15:41:15;24.40;;;12.60;;
68577;SDS011;61668;45.388;11.784;2023-04-01T15:43:47;22.40;;;12.90;;
68577;SDS011;61668;45.388;11.784;2023-04-01T15:54:57;25.70;;;13.00;;
68577;SDS011;61668;45.388;11.784;2023-04-01T16:11:53;21.20;;;10.30;;
68577;SDS011;61668;45.388;11.784;2023-04-01T16:17:05;21.80;;;10.00;;
68577;SDS011;61668;45.388;11.784;2023-04-01T16:19:55;19.30;;;10.60;;
68577;SDS011;61668;45.388;11.784;2023-04-01T16:25:41;21.20;;;8.90;;
68577;SDS011;61668;45.388;11.784;2023-04-01T16:28:54;18.20;;;8.20;;
68577;SDS011;61668;45.388;11.784;2023-04-01T16:31:51;16.20;;;8.30;;
68577;SDS011;61668;45.388;11.784;2023-04-01T16:37:05;19.40;;;9.20;;
68577;SDS011;61668;45.388;11.784;2023-04-01T16:43:10;20.50;;;9.40;;
68577;SDS011;61668;45.388;11.784;2023-04-01T16:51:48;18.20;;;7.70;;
68577;SDS011;61668;45.388;11.784;2023-04-01T16:59:58;21.40;;;9.20;;
68577;SDS011;61668;45.388;11.784;2023-04-01T17:06:11;18.30;;;8.10;;
68577;SDS011;61668;45.388;11.784;2023-04-01T17:11:43;20.00;;;8.60;;
68577;SDS011;61668;45.388;11.784;2023-04-01T17:14:24;16.30;;;7.90;;
68577;SDS011;61668;45.388;11.784;2023-04-01T17:26:06;22.30;;;10.20;;
68577;SDS011;61668;45.388;11.784;2023-04-01T17:32:13;20.50;;;10.20;;
68577;SDS011;61668;45.388;11.784;2023-04-01T17:35:29;20.60;;;10.80;;
68577;SDS011;61668;45.388;11.784;2023-04-01T17:38:11;21.50;;;10.90;;
68577;SDS011;61668;45.388;11.784;2023-04-01T17:43:53;18.30;;;9.30;;
68577;SDS011;61668;45.388;11.784;2023-04-01T17:52:11;24.00;;;10.20;;
68577;SDS011;61668;45.388;11.784;2023-04-01T17:55:05;22.30;;;9.90;;
68577;SDS011;61668;45.388;11.784;2023-04-01T18:01:08;21.60;;;10.10;;
68577;SDS011;61668;45.388;11.784;2023-04-01T18:04:08;22.10;;;10.30;;
68577;SDS011;61668;45.388;11.784;2023-04-01T18:18:35;26.60;;;13.10;;
68577;SDS011;61668;45.388;11.784;2023-04-01T18:21:39;29.00;;;14.30;;
68577;SDS011;61668;45.388;11.784;2023-04-01T18:24:54;26.10;;;13.60;;
68577;SDS011;61668;45.388;11.784;2023-04-01T18:27:44;22.50;;;11.60;;
68577;SDS011;61668;45.388;11.784;2023-04-01T18:30:30;25.40;;;13.40;;
68577;SDS011;61668;45.388;11.784;2023-04-01T18:41:30;31.10;;;13.80;;
68577;SDS011;61668;45.388;11.784;2023-04-01T18:56:41;39.40;;;19.50;;
68577;SDS011;61668;45.388;11.784;2023-04-01T18:59:27;39.30;;;19.90;;
68577;SDS011;61668;45.388;11.784;2023-04-01T19:02:17;34.30;;;16.80;;
68577;SDS011;61668;45.388;11.784;2023-04-01T19:05:11;37.90;;;20.50;;
68577;SDS011;61668;45.388;11.784;2023-04-01T19:07:44;35.70;;;18.00;;
68577;SDS011;61668;45.388;11.784;2023-04-01T19:10:31;42.20;;;19.30;;
68577;SDS011;61668;45.388;11.784;2023-04-01T19:13:28;33.20;;;16.00;;
68577;SDS011;61668;45.388;11.784;2023-04-01T19:21:44;39.10;;;19.10;;
68577;SDS011;61668;45.388;11.784;2023-04-01T19:36:45;38.10;;;19.30;;
68577;SDS011;61668;45.388;11.784;2023-04-01T19:42:43;43.00;;;20.40;;
68577;SDS011;61668;45.388;11.784;2023-04-01T20:02:52;40.50;;;18.60;;
68577;SDS011;61668;45.388;11.784;2023-04-01T20:14:57;37.30;;;17.80;;
68577;SDS011;61668;45.388;11.784;2023-04-01T20:25:26;27.60;;;13.30;;
68577;SDS011;61668;45.388;11.784;2023-04-01T20:39:31;24.80;;;11.40;;
68577;SDS011;61668;45.388;11.784;2023-04-01T21:05:59;27.20;;;10.40;;
68577;SDS011;61668;45.388;11.784;2023-04-01T21:17:38;36.30;;;19.40;;
68577;SDS011;61668;45.388;11.784;2023-04-01T21:26:12;44.50;;;23.00;;
68577;SDS011;61668;45.388;11.784;2023-04-01T21:43:39;58.70;;;28.30;;
68577;SDS011;61668;45.388;11.784;2023-04-01T21:53:00;55.40;;;28.70;;
68577;SDS011;61668;45.388;11.784;2023-04-01T22:07:16;47.80;;;23.20;;
68577;SDS011;61668;45.388;11.784;2023-04-01T22:10:35;47.60;;;23.00;;
68577;SDS011;61668;45.388;11.784;2023-04-01T22:13:16;44.80;;;22.00;;
68577;SDS011;61668;45.388;11.784;2023-04-01T22:16:36;52.30;;;22.80;;
68577;SDS011;61668;45.388;11.784;2023-04-01T22:24:48;43.70;;;21.50;;
68577;SDS011;61668;45.388;11.784;2023-04-01T22:27:29;44.50;;;22.20;;
68577;SDS011;61668;45.388;11.784;2023-04-01T22:30:24;46.70;;;22.60;;
68577;SDS011;61668;45.388;11.784;2023-04-01T22:33:05;45.00;;;22.00;;
68577;SDS011;61668;45.388;11.784;2023-04-01T22:36:08;41.70;;;20.70;;
68577;SDS011;61668;45.388;11.784;2023-04-01T22:38:54;43.80;;;19.80;;
68577;SDS011;61668;45.388;11.784;2023-04-01T22:44:30;42.40;;;20.40;;
68577;SDS011;61668;45.388;11.784;2023-04-01T22:50:25;40.80;;;20.70;;
68577;SDS011;61668;45.388;11.784;2023-04-01T22:56:20;38.10;;;20.00;;
68577;SDS011;61668;45.388;11.784;2023-04-01T22:58:59;42.90;;;20.30;;
68577;SDS011;61668;45.388;11.784;2023-04-01T23:01:36;44.20;;;20.80;;
68577;SDS011;61668;45.388;11.784;2023-04-01T23:04:07;42.90;;;20.30;;
68577;SDS011;61668;45.388;11.784;2023-04-01T23:06:39;47.10;;;21.30;;
68577;SDS011;61668;45.388;11.784;2023-04-01T23:09:15;42.00;;;19.00;;
68577;SDS011;61668;45.388;11.784;2023-04-01T23:11:49;43.10;;;21.10;;
68577;SDS011;61668;45.388;11.784;2023-04-01T23:14:43;44.40;;;21.00;;
68577;SDS011;61668;45.388;11.784;2023-04-01T23:20:54;41.30;;;20.90;;
68577;SDS011;61668;45.388;11.784;2023-04-01T23:26:40;40.10;;;19.80;;
68577;SDS011;61668;45.388;11.784;2023-04-01T23:29:17;42.30;;;21.40;;
68577;SDS011;61668;45.388;11.784;2023-04-01T23:31:45;40.30;;;21.80;;
68577;SDS011;61668;45.388;11.784;2023-04-01T23:36:51;39.30;;;19.20;;
68577;SDS011;61668;45.388;11.784;2023-04-01T23:42:31;40.90;;;19.90;;
68577;SDS011;61668;45.388;11.784;2023-04-01T23:45:13;41.70;;;18.50;;
68577;SDS011;61668;45.388;11.784;2023-04-01T23:47:43;39.30;;;19.20;;
68577;SDS011;61668;45.388;11.784;2023-04-01T23:50:18;39.90;;;19.20;;
68577;SDS011;61668;45.388;11.784;2023-04-01T23:53:16;35.40;;;17.50;;
68577;SDS011;61668;45.388;11.784;2023-04-01T23:55:45;37.70;;;17.90;;
68577;SDS011;61668;45.388;11.784;2023-04-01T23:58:18;35.50;;;18.80;;
